Time;durP1;ratioP1;P1;durP2;ratioP2;P2;SDS_P1;SDS_P2;PMS_P1;PMS_P2;Temp;Humidity;BMP_temperature;BMP_pressure;BME280_temperature;BME280_humidity;BME280_pressure;Samples;Min_cycle;Max_cycle;Signal;HPM_P1;HPM_P2
2024/01/31 00:01:07;;;;;;;11.35;6.38;;;8.10;99.90;;;7.58;100.00;98827.16;5016665;28;20051;-38
2024/01/31 00:03:33;;;;;;;13.40;6.38;;;8.10;99.90;;;7.60;100.00;98829.78;5033502;28;20033;-37
2024/01/31 00:05:59;;;;;;;11.35;6.32;;;8.10;99.90;;;7.60;100.00;98833.28;5030946;28;20114;-37
2024/01/31 00:08:24;;;;;;;9.40;5.68;;;8.20;99.90;;;7.64;100.00;98828.91;5033213;28;20396;-37
2024/01/31 00:10:50;;;;;;;11.60;5.80;;;8.20;99.90;;;7.67;100.00;98831.53;5029853;28;20067;-37
2024/01/31 00:13:16;;;;;;;10.68;5.28;;;8.20;99.90;;;7.70;100.00;98823.66;5033108;28;20047;-37
2024/01/31 00:15:41;;;;;;;7.97;4.28;;;8.30;99.90;;;7.72;100.00;98824.53;5030602;28;20259;-37
2024/01/31 00:18:07;;;;;;;7.15;4.18;;;8.30;99.90;;;7.74;100.00;98817.50;5033834;28;20091;-37
2024/01/31 00:20:33;;;;;;;8.10;4.65;;;8.30;99.90;;;7.75;100.00;98819.28;5027807;28;20059;-37
2024/01/31 00:22:58;;;;;;;9.75;5.07;;;8.30;99.90;;;7.73;100.00;98822.75;5023248;28;20331;-37
2024/01/31 00:25:24;;;;;;;8.82;5.43;;;8.30;99.90;;;7.72;100.00;98815.78;5023054;28;20037;-37
2024/01/31 00:27:51;;;;;;;12.05;6.03;;;8.30;99.90;;;7.68;100.00;98816.63;5020233;28;20044;-37
2024/01/31 00:30:17;;;;;;;12.68;6.50;;;8.30;99.90;;;7.61;100.00;98814.03;5024963;28;20040;-37
2024/01/31 00:32:42;;;;;;;15.38;7.32;;;8.20;99.90;;;7.63;100.00;98814.03;5027092;28;20068;-35
2024/01/31 00:35:08;;;;;;;11.13;6.75;;;8.20;99.90;;;7.62;100.00;98814.91;5024417;28;20025;-35
2024/01/31 00:37:34;;;;;;;13.63;6.47;;;8.20;99.90;;;7.60;100.00;98820.16;5021364;28;20541;-36
2024/01/31 00:40:00;;;;;;;14.98;7.15;;;8.20;99.90;;;7.60;100.00;98820.16;5022448;28;20033;-36
2024/01/31 00:42:25;;;;;;;10.63;6.28;;;8.20;99.90;;;7.61;100.00;98824.53;5028079;28;20048;-36
2024/01/31 00:44:51;;;;;;;9.20;5.68;;;8.20;99.90;;;7.65;100.00;98821.03;5022045;28;20095;-35
2024/01/31 00:47:17;;;;;;;9.18;4.95;;;8.20;99.90;;;7.67;100.00;98817.53;5025327;28;20041;-36
2024/01/31 00:49:42;;;;;;;9.13;5.07;;;8.30;99.90;;;7.73;100.00;98826.25;5015748;28;20594;-36
2024/01/31 00:52:08;;;;;;;10.27;5.82;;;8.30;99.90;;;7.71;100.00;98814.88;5020249;28;20043;-37
2024/01/31 00:54:34;;;;;;;11.85;5.80;;;8.30;99.90;;;7.72;100.00;98821.88;5019623;28;20044;-37
2024/01/31 00:56:59;;;;;;;12.48;5.60;;;8.30;99.90;;;7.72;100.00;98826.28;4999427;28;20139;-37
2024/01/31 00:59:25;;;;;;;9.85;5.68;;;8.30;99.90;;;7.72;100.00;98821.88;5027838;28;20044;-36
2024/01/31 01:01:54;;;;;;;8.95;4.75;;;8.30;99.90;;;7.76;100.00;98826.25;5028437;28;20033;-37
2024/01/31 01:04:20;;;;;;;9.98;4.60;;;8.30;99.90;;;7.77;100.00;98829.75;5026104;28;20025;-37
2024/01/31 01:06:45;;;;;;;9.05;4.70;;;8.40;99.90;;;7.80;100.00;98832.38;5026897;28;20067;-37
2024/01/31 01:09:11;;;;;;;8.27;4.75;;;8.40;99.90;;;7.83;100.00;98827.13;5026675;28;20412;-37
2024/01/31 01:11:37;;;;;;;8.00;4.57;;;8.40;99.90;;;7.89;100.00;98828.84;5026280;28;20099;-37
2024/01/31 01:14:02;;;;;;;7.35;4.43;;;8.50;99.90;;;7.89;100.00;98816.56;5029849;28;20041;-37
2024/01/31 01:16:30;;;;;;;10.95;5.30;;;8.50;99.90;;;7.90;100.00;98827.97;5018296;28;20287;-37
2024/01/31 01:18:55;;;;;;;11.88;6.10;;;8.50;99.90;;;7.87;100.00;98820.09;5019389;28;20032;-37
2024/01/31 01:21:21;;;;;;;10.45;6.25;;;8.40;99.90;;;7.81;100.00;98828.88;5017410;28;20359;-38
2024/01/31 01:23:47;;;;;;;12.48;7.18;;;8.40;99.90;;;7.77;100.00;98822.75;5024740;28;20021;-37
2024/01/31 01:26:13;;;;;;;12.80;7.75;;;8.30;99.90;;;7.71;100.00;98828.00;5028119;28;20041;-37
2024/01/31 01:28:38;;;;;;;18.23;6.75;;;8.30;99.90;;;7.70;100.00;98826.28;5026851;28;20374;-37
2024/01/31 01:31:04;;;;;;;11.13;6.18;;;8.30;99.90;;;7.71;100.00;98832.41;5024634;28;20052;-37
2024/01/31 01:33:30;;;;;;;11.15;5.68;;;8.30;99.90;;;7.71;100.00;98838.50;5023030;28;20481;-37
2024/01/31 01:35:55;;;;;;;9.50;5.35;;;8.30;99.90;;;7.73;100.00;98836.75;5022959;28;20116;-37
2024/01/31 01:38:21;;;;;;;9.00;4.90;;;8.30;99.90;;;7.76;100.00;98830.63;5030873;28;20045;-37
2024/01/31 01:40:47;;;;;;;7.55;5.05;;;8.30;99.90;;;7.77;100.00;98830.63;5016704;28;20033;-37
2024/01/31 01:43:17;;;;;;;7.25;4.38;;;8.30;99.90;;;7.79;100.00;98831.50;5030993;28;20029;-37
2024/01/31 01:45:43;;;;;;;7.57;4.88;;;8.40;99.90;;;7.80;100.00;98829.75;5025318;28;20116;-37
2024/01/31 01:48:09;;;;;;;8.25;4.53;;;8.40;99.90;;;7.82;100.00;98833.22;5008359;28;20047;-37
2024/01/31 01:50:35;;;;;;;8.20;4.55;;;8.40;99.90;;;7.84;100.00;98827.13;5026576;28;20119;-37
2024/01/31 01:53:01;;;;;;;9.20;4.30;;;8.40;99.90;;;7.86;100.00;98823.59;5022965;28;20090;-37
2024/01/31 01:55:28;;;;;;;8.52;4.47;;;8.40;99.90;;;7.88;100.00;98827.09;5028357;28;20063;-37
2024/01/31 01:57:55;;;;;;;7.90;4.65;;;8.40;99.90;;;7.87;100.00;98823.59;5024379;28;20055;-37
2024/01/31 02:00:24;;;;;;;9.73;4.38;;;8.40;99.90;;;7.88;100.00;98824.47;5034835;28;20025;-37
2024/01/31 02:02:51;;;;;;;6.70;4.32;;;8.40;99.90;;;7.86;100.00;98826.22;5029477;28;20029;-37
2024/01/31 02:05:16;;;;;;;12.02;4.25;;;8.40;99.90;;;7.85;100.00;98820.09;5026857;28;20036;-37
2024/01/31 02:07:43;;;;;;;10.25;4.82;;;8.40;99.90;;;7.81;100.00;98811.34;5025583;28;20103;-37
2024/01/31 02:10:09;;;;;;;8.05;4.20;;;8.40;99.90;;;7.83;100.00;98814.84;5024775;28;20546;-37
2024/01/31 02:12:35;;;;;;;8.07;4.28;;;8.40;99.90;;;7.72;100.00;98798.25;5030188;28;20041;-35
2024/01/31 02:15:01;;;;;;;6.60;4.35;;;8.40;99.90;;;7.82;100.00;98815.75;5033952;28;20604;-38
2024/01/31 02:17:27;;;;;;;7.50;4.35;;;8.40;99.90;;;7.81;100.00;98803.47;5032608;28;20208;-36
2024/01/31 02:19:53;;;;;;;7.32;4.10;;;8.40;99.90;;;7.78;100.00;98800.84;5028992;28;20032;-37
2024/01/31 02:22:19;;;;;;;7.53;4.35;;;8.30;99.90;;;7.69;100.00;98773.75;5029014;28;20302;-36
2024/01/31 02:24:45;;;;;;;6.75;4.43;;;8.40;99.90;;;7.72;100.00;98793.00;5026661;28;20029;-36
2024/01/31 02:27:11;;;;;;;8.18;4.05;;;8.30;99.90;;;7.80;100.00;98804.34;5030069;28;20355;-36
2024/01/31 02:29:38;;;;;;;10.15;4.97;;;8.40;99.90;;;7.83;100.00;98798.22;5034207;28;20117;-36
2024/01/31 02:32:06;;;;;;;6.90;4.07;;;8.40;99.90;;;7.85;100.00;98796.47;5029436;28;20448;-36
2024/01/31 02:34:32;;;;;;;5.97;3.88;;;8.40;99.90;;;7.86;100.00;98786.81;5031292;28;20037;-37
2024/01/31 02:36:57;;;;;;;6.40;4.10;;;8.40;99.90;;;7.84;100.00;98787.72;5028224;28;20024;-37
2024/01/31 02:39:24;;;;;;;8.07;3.90;;;8.40;99.90;;;7.87;100.00;98791.19;5030282;28;20590;-37
2024/01/31 02:41:52;;;;;;;10.23;4.30;;;8.50;99.90;;;7.88;100.00;98787.69;5024628;28;20493;-37
2024/01/31 02:44:18;;;;;;;8.30;4.10;;;8.40;99.90;;;7.88;100.00;98775.44;5025747;28;20318;-36
2024/01/31 02:46:44;;;;;;;8.13;4.57;;;8.40;99.90;;;7.87;100.00;98784.19;5021119;28;20599;-36
2024/01/31 02:49:10;;;;;;;5.47;3.58;;;8.40;99.90;;;7.87;100.00;98784.19;5021733;28;20028;-37
2024/01/31 02:51:36;;;;;;;6.00;3.85;;;8.40;99.90;;;7.88;100.00;98782.41;5028244;28;20088;-37
2024/01/31 02:54:01;;;;;;;6.05;3.90;;;8.40;99.90;;;7.89;100.00;98785.06;5027763;28;20033;-37
2024/01/31 02:56:27;;;;;;;6.97;3.80;;;8.50;99.90;;;7.87;100.00;98775.44;5022677;28;20036;-37
2024/01/31 02:58:53;;;;;;;7.13;3.90;;;8.50;99.90;;;7.95;100.00;98786.78;5023184;28;20092;-37
2024/01/31 03:01:18;;;;;;;7.00;4.25;;;8.50;99.90;;;7.95;100.00;98787.66;5034317;28;20044;-37
2024/01/31 03:03:44;;;;;;;4.80;3.42;;;8.50;99.90;;;7.99;100.00;98781.50;5036623;28;20274;-38
2024/01/31 03:06:11;;;;;;;5.85;3.70;;;8.60;99.90;;;8.05;100.00;98790.25;5033261;28;20033;-37
2024/01/31 03:08:37;;;;;;;5.40;3.40;;;8.60;99.90;;;8.05;100.00;98780.59;5033746;28;20074;-36
2024/01/31 03:11:03;;;;;;;5.93;3.60;;;8.60;99.90;;;8.06;100.00;98785.00;5029733;28;20044;-38
2024/01/31 03:13:28;;;;;;;9.35;3.75;;;8.60;99.90;;;8.09;100.00;98784.97;5033973;28;20493;-37
2024/01/31 03:15:54;;;;;;;6.63;3.30;;;8.70;99.90;;;8.14;100.00;98784.94;5024354;28;20305;-36
2024/01/31 03:18:20;;;;;;;5.28;3.50;;;8.70;99.90;;;8.17;100.00;98783.19;5030374;28;20040;-38
2024/01/31 03:20:45;;;;;;;6.63;3.60;;;8.70;99.90;;;8.20;100.00;98771.75;5023537;28;20570;-37
2024/01/31 03:23:12;;;;;;;5.22;3.75;;;8.80;99.90;;;8.21;100.00;98776.16;5026746;28;20033;-37
2024/01/31 03:25:37;;;;;;;6.03;3.80;;;8.80;99.90;;;8.21;100.00;98779.63;5029878;28;20036;-37
2024/01/31 03:28:03;;;;;;;5.35;3.88;;;8.80;99.90;;;8.22;100.00;98780.53;5024738;28;20037;-37
2024/01/31 03:30:29;;;;;;;5.22;3.40;;;8.80;99.90;;;8.23;100.00;98779.63;5028228;28;20547;-37
2024/01/31 03:32:55;;;;;;;8.90;3.58;;;8.70;99.90;;;8.18;100.00;98776.16;5028455;28;20029;-37
2024/01/31 03:35:21;;;;;;;5.93;3.45;;;8.70;99.90;;;8.11;100.00;98777.06;5028793;28;20140;-37
2024/01/31 03:37:46;;;;;;;6.05;3.78;;;8.70;99.90;;;8.07;100.00;98775.34;5028883;28;20033;-37
2024/01/31 03:40:12;;;;;;;8.05;4.50;;;8.60;99.90;;;8.00;100.00;98777.13;5026814;28;20025;-37
2024/01/31 03:42:38;;;;;;;7.43;4.90;;;8.50;99.90;;;7.94;100.00;98775.41;5034664;28;20143;-37
2024/01/31 03:45:05;;;;;;;11.15;5.07;;;8.50;99.90;;;7.89;100.00;98777.16;5034764;28;20067;-37
2024/01/31 03:47:34;;;;;;;8.93;5.40;;;8.50;99.90;;;7.88;100.00;98777.16;5033311;28;20119;-37
2024/01/31 03:49:59;;;;;;;8.32;5.30;;;8.40;99.90;;;7.87;100.00;98783.31;5025981;28;20509;-35
2024/01/31 03:52:25;;;;;;;10.02;5.57;;;8.40;99.90;;;7.86;100.00;98781.56;5007448;28;20052;-37
2024/01/31 03:54:51;;;;;;;10.07;5.57;;;8.40;99.90;;;7.83;100.00;98780.69;5028135;28;20033;-37
2024/01/31 03:57:17;;;;;;;7.78;4.88;;;8.40;99.90;;;7.84;100.00;98778.94;5026741;28;20454;-37
2024/01/31 03:59:43;;;;;;;8.30;4.70;;;8.40;99.90;;;7.74;100.00;98764.97;5027644;28;20107;-37
2024/01/31 04:02:08;;;;;;;8.23;4.05;;;8.40;99.90;;;7.86;100.00;98778.94;5028401;28;20052;-37
2024/01/31 04:04:34;;;;;;;8.18;4.55;;;8.40;99.90;;;7.87;100.00;98776.31;5038510;28;20457;-35
2024/01/31 04:07:00;;;;;;;7.00;4.18;;;8.40;99.90;;;7.87;100.00;98784.19;5011436;28;20622;-36
2024/01/31 04:09:25;;;;;;;8.93;4.05;;;8.40;99.90;;;7.90;100.00;98780.69;5034369;28;20032;-36
2024/01/31 04:11:51;;;;;;;7.60;4.03;;;8.40;99.90;;;7.90;100.00;98773.69;5025500;28;20271;-36
2024/01/31 04:14:17;;;;;;;7.65;3.97;;;8.40;99.90;;;7.91;100.00;98780.66;5010777;28;20029;-36
2024/01/31 04:16:43;;;;;;;6.70;3.88;;;8.50;99.90;;;7.92;100.00;98781.56;5032656;28;20658;-36
2024/01/31 04:19:08;;;;;;;5.78;3.80;;;8.50;99.90;;;7.91;100.00;98775.41;5028786;28;20324;-36
2024/01/31 04:21:34;;;;;;;8.55;4.05;;;8.40;99.90;;;7.91;100.00;98777.16;5024509;28;20037;-36
2024/01/31 04:24:00;;;;;;;5.78;4.18;;;8.50;99.90;;;7.91;100.00;98783.28;5023653;28;20414;-36
2024/01/31 04:26:25;;;;;;;8.02;3.88;;;8.50;99.90;;;7.91;100.00;98782.41;5010872;28;20044;-36
2024/01/31 04:28:52;;;;;;;5.25;3.80;;;8.40;99.90;;;7.86;100.00;98771.94;5021433;28;20028;-36
2024/01/31 04:31:17;;;;;;;6.10;3.58;;;8.50;99.90;;;7.88;100.00;98785.06;5026387;28;20075;-36
2024/01/31 04:33:44;;;;;;;7.90;4.32;;;8.40;99.90;;;7.86;100.00;98784.19;5025700;28;20385;-36
2024/01/31 04:36:10;;;;;;;7.75;4.55;;;8.40;99.90;;;7.83;100.00;98785.94;5028395;28;20124;-36
2024/01/31 04:38:35;;;;;;;7.80;4.88;;;8.40;99.90;;;7.83;100.00;98791.19;5028599;28;20037;-36
2024/01/31 04:41:02;;;;;;;9.40;5.13;;;8.40;99.90;;;7.81;100.00;98797.34;5025049;28;20481;-36
2024/01/31 04:43:28;;;;;;;9.00;5.22;;;8.40;99.90;;;7.74;100.00;98788.63;5025710;28;20481;-37
2024/01/31 04:45:54;;;;;;;7.32;4.35;;;8.40;99.90;;;7.76;100.00;98786.00;5025531;28;20054;-36
2024/01/31 04:48:20;;;;;;;9.13;5.20;;;8.30;99.90;;;7.77;100.00;98799.13;5028057;28;20040;-36
2024/01/31 04:50:46;;;;;;;10.50;4.93;;;8.30;99.90;;;7.77;100.00;98796.50;5021399;28;20029;-36
2024/01/31 04:53:12;;;;;;;7.53;4.63;;;8.30;99.90;;;7.78;100.00;98805.25;5028525;28;20444;-36
2024/01/31 04:55:37;;;;;;;7.88;4.78;;;8.30;99.90;;;7.79;100.00;98810.50;5027401;28;20056;-36
2024/01/31 04:58:03;;;;;;;8.98;4.43;;;8.30;99.90;;;7.80;100.00;98816.59;5023433;28;20575;-36
2024/01/31 05:00:29;;;;;;;6.82;4.18;;;8.40;99.90;;;7.77;100.00;98809.63;5024830;28;20477;-36
2024/01/31 05:02:54;;;;;;;10.60;4.32;;;8.30;99.90;;;7.75;100.00;98806.13;5016170;28;20045;-37
2024/01/31 05:05:20;;;;;;;7.72;4.07;;;8.40;99.90;;;7.81;100.00;98819.22;5021649;28;20033;-37
2024/01/31 05:07:46;;;;;;;7.82;3.90;;;8.40;99.90;;;7.83;100.00;98824.50;5020326;28;20033;-37
2024/01/31 05:10:12;;;;;;;7.82;4.20;;;8.40;99.90;;;7.84;100.00;98824.50;5025508;28;20163;-37
2024/01/31 05:12:38;;;;;;;6.30;4.30;;;8.40;99.90;;;7.83;100.00;98827.13;5024263;28;20060;-37
2024/01/31 05:15:05;;;;;;;9.07;4.60;;;8.40;99.90;;;7.80;100.00;98820.09;5023843;28;20409;-37
2024/01/31 05:17:31;;;;;;;6.65;4.10;;;8.40;99.90;;;7.75;100.00;98821.91;5025698;28;20029;-37
2024/01/31 05:19:56;;;;;;;8.43;4.38;;;8.40;99.90;;;7.76;100.00;98828.88;5022833;28;21836;-37
2024/01/31 05:22:22;;;;;;;6.97;4.10;;;8.30;99.90;;;7.75;100.00;98840.28;5028168;28;20039;-37
2024/01/31 05:24:48;;;;;;;7.22;4.78;;;8.30;99.90;;;7.71;100.00;98842.91;5011435;28;20413;-37
2024/01/31 05:27:13;;;;;;;10.15;5.10;;;8.30;99.90;;;7.69;100.00;98847.28;5024630;28;20048;-37
2024/01/31 05:29:39;;;;;;;10.32;5.10;;;8.30;99.90;;;7.66;100.00;98840.28;5024084;28;20506;-37
2024/01/31 05:32:05;;;;;;;7.47;4.88;;;8.20;99.90;;;7.66;100.00;98845.53;5020073;28;20504;-37
2024/01/31 05:34:31;;;;;;;8.02;4.70;;;8.20;99.90;;;7.63;100.00;98846.41;5023227;28;20031;-37
2024/01/31 05:36:57;;;;;;;7.65;4.28;;;8.20;99.90;;;7.64;100.00;98849.91;5013731;28;20087;-37
2024/01/31 05:39:23;;;;;;;8.00;4.40;;;8.20;99.90;;;7.64;100.00;98847.28;5017425;28;20041;-37
2024/01/31 05:41:48;;;;;;;6.95;4.40;;;8.20;99.90;;;7.65;100.00;98846.41;5020450;28;20179;-37
2024/01/31 05:44:14;;;;;;;7.13;4.00;;;8.20;99.90;;;7.66;100.00;98848.16;5021952;28;20041;-36
2024/01/31 05:46:40;;;;;;;11.40;5.35;;;8.20;99.90;;;7.67;100.00;98844.66;5024763;28;20025;-37
2024/01/31 05:49:06;;;;;;;6.60;4.63;;;8.20;99.90;;;7.67;100.00;98849.03;5022389;28;20029;-37
2024/01/31 05:51:32;;;;;;;8.55;4.97;;;8.20;99.90;;;7.62;100.00;98846.41;5028077;28;20297;-37
2024/01/31 05:53:57;;;;;;;7.47;4.53;;;8.20;99.90;;;7.59;100.00;98841.16;5027793;28;20037;-37
2024/01/31 05:56:23;;;;;;;6.32;4.13;;;8.20;99.90;;;7.58;100.00;98842.94;5027955;28;20036;-37
2024/01/31 05:58:49;;;;;;;8.20;4.60;;;8.20;99.90;;;7.51;100.00;98833.31;5031001;28;20114;-37
2024/01/31 06:01:15;;;;;;;8.05;4.50;;;8.10;99.90;;;7.56;100.00;98841.19;5032273;28;20040;-37
2024/01/31 06:03:40;;;;;;;9.27;5.10;;;8.10;99.90;;;7.51;100.00;98835.06;5032214;28;20406;-37
2024/01/31 06:06:06;;;;;;;10.80;5.35;;;8.10;99.90;;;7.57;100.00;98845.56;5032063;28;20272;-37
2024/01/31 06:08:35;;;;;;;13.75;6.30;;;8.10;99.90;;;7.54;100.00;98842.94;5034303;28;20025;-37
2024/01/31 06:11:04;;;;;;;12.82;6.20;;;8.10;99.90;;;7.49;100.00;98826.31;5036110;28;20036;-37
2024/01/31 06:13:30;;;;;;;11.07;6.38;;;8.10;99.90;;;7.48;100.00;98830.69;5025816;28;20557;-37
2024/01/31 06:15:56;;;;;;;9.38;5.75;;;8.10;99.90;;;7.54;100.00;98848.19;5017720;28;20231;-37
2024/01/31 06:18:23;;;;;;;14.10;7.35;;;8.10;99.90;;;7.52;100.00;98847.31;5029464;28;20211;-37
2024/01/31 06:20:51;;;;;;;12.13;6.70;;;8.10;99.90;;;7.43;100.00;98833.34;5030794;28;20051;-37
2024/01/31 06:23:17;;;;;;;9.73;4.85;;;8.10;99.90;;;7.47;100.00;98849.09;5032540;28;20108;-36
2024/01/31 06:25:43;;;;;;;10.13;4.32;;;8.00;99.90;;;7.42;100.00;98855.19;5019983;28;20504;-36
2024/01/31 06:28:09;;;;;;;9.23;4.68;;;8.00;99.90;;;7.39;100.00;98859.56;5020788;28;20021;-36
2024/01/31 06:30:43;;;;;;;10.35;5.50;;;8.00;99.90;;;7.32;100.00;98858.72;5018703;28;20453;-37
2024/01/31 06:33:10;;;;;;;9.05;4.93;;;7.90;99.90;;;7.27;100.00;98847.34;5031896;28;20529;-37
2024/01/31 06:35:36;;;;;;;9.75;5.82;;;7.90;99.90;;;7.20;100.00;98850.84;5037806;28;20025;-37
2024/01/31 06:38:03;;;;;;;9.20;5.72;;;7.80;99.90;;;7.15;100.00;98857.84;5036117;28;20024;-37
2024/01/31 06:40:30;;;;;;;9.10;5.20;;;7.80;99.90;;;7.13;100.00;98864.84;5031256;28;20517;-37
2024/01/31 06:42:58;;;;;;;14.32;6.72;;;7.70;99.90;;;7.11;100.00;98869.22;5035780;28;20489;-37
2024/01/31 06:45:24;;;;;;;9.55;4.88;;;7.70;99.90;;;6.96;100.00;98844.69;5038776;28;20426;-37
2024/01/31 06:47:51;;;;;;;10.05;5.57;;;7.70;99.90;;;7.03;100.00;98856.97;5023093;28;20436;-37
2024/01/31 06:50:18;;;;;;;7.38;4.90;;;7.70;99.90;;;7.07;100.00;98863.09;5021962;28;20021;-37
2024/01/31 06:52:44;;;;;;;9.90;5.07;;;7.70;99.90;;;6.93;100.00;98838.56;5037767;28;20048;-37
2024/01/31 06:55:10;;;;;;;11.32;6.22;;;7.70;99.90;;;6.99;100.00;98854.34;5035058;28;20627;-39
2024/01/31 06:57:37;;;;;;;14.55;6.95;;;7.70;99.90;;;7.05;100.00;98870.06;5038168;28;20029;-37
2024/01/31 07:00:07;;;;;;;12.65;6.47;;;7.70;99.90;;;7.07;100.00;98869.22;5035308;28;20044;-37
2024/01/31 07:02:32;;;;;;;10.77;6.10;;;7.70;99.90;;;7.11;100.00;98872.72;5032202;28;20087;-37
2024/01/31 07:04:58;;;;;;;9.18;6.07;;;7.70;99.90;;;7.15;100.00;98871.84;5036751;28;20037;-37
2024/01/31 07:07:24;;;;;;;11.18;6.72;;;7.70;99.90;;;7.19;100.00;98878.81;5038795;28;20460;-37
2024/01/31 07:09:49;;;;;;;14.85;6.40;;;7.70;99.90;;;7.19;100.00;98878.81;5036021;28;20033;-37
2024/01/31 07:12:15;;;;;;;10.40;5.70;;;7.80;99.90;;;7.21;100.00;98869.22;5037362;28;20044;-37
2024/01/31 07:14:42;;;;;;;8.48;5.55;;;7.80;99.90;;;7.18;100.00;98866.59;5037337;28;20029;-37
2024/01/31 07:17:08;;;;;;;8.38;5.22;;;7.80;99.90;;;7.22;100.00;98867.47;5026255;28;20032;-37
2024/01/31 07:19:33;;;;;;;8.70;5.50;;;7.80;99.90;;;7.24;100.00;98870.97;5020508;28;20033;-35
2024/01/31 07:21:59;;;;;;;8.52;5.30;;;7.80;99.90;;;7.20;100.00;98863.97;5038206;28;20309;-36
2024/01/31 07:24:25;;;;;;;10.75;6.65;;;7.80;99.90;;;7.26;100.00;98867.44;5038976;28;20025;-36
2024/01/31 07:26:51;;;;;;;9.07;5.85;;;7.80;99.90;;;7.28;100.00;98867.44;5036532;28;20086;-36
2024/01/31 07:29:16;;;;;;;9.60;6.20;;;7.90;99.90;;;7.34;100.00;98870.09;5036358;28;20029;-36
2024/01/31 07:31:42;;;;;;;12.13;6.60;;;7.90;99.90;;;7.37;100.00;98880.56;5037880;28;21471;-36
2024/01/31 07:34:08;;;;;;;11.15;6.10;;;7.90;99.90;;;7.40;100.00;98877.94;5034981;28;20028;-37
2024/01/31 07:36:33;;;;;;;13.43;7.68;;;8.00;99.90;;;7.37;100.00;98872.69;5025979;28;20056;-38
2024/01/31 07:38:59;;;;;;;10.05;6.70;;;8.00;99.90;;;7.41;100.00;98868.31;5033399;28;20091;-36
2024/01/31 07:41:25;;;;;;;11.93;6.50;;;8.00;99.90;;;7.41;100.00;98876.19;5040368;28;20108;-36
2024/01/31 07:43:50;;;;;;;15.40;7.90;;;8.00;99.90;;;7.34;100.00;98863.94;5034389;28;20029;-36
2024/01/31 07:46:16;;;;;;;15.32;7.55;;;8.00;99.90;;;7.39;100.00;98878.84;5035792;28;20036;-36
2024/01/31 07:48:42;;;;;;;12.40;7.65;;;8.00;99.90;;;7.33;100.00;98864.84;5039293;28;20044;-36
2024/01/31 07:51:08;;;;;;;13.60;7.78;;;8.00;99.90;;;7.38;100.00;98879.69;5039245;28;20390;-37
2024/01/31 07:53:33;;;;;;;14.20;8.07;;;8.00;99.90;;;7.39;100.00;98884.09;5033827;28;20033;-37
2024/01/31 07:55:59;;;;;;;11.40;7.47;;;8.00;99.90;;;7.36;100.00;98891.97;5036494;28;20500;-37
2024/01/31 07:58:25;;;;;;;15.15;8.77;;;8.00;99.90;;;7.35;100.00;98882.31;5036877;28;20058;-37
2024/01/31 08:00:51;;;;;;;13.65;8.27;;;7.90;99.90;;;7.35;100.00;98879.69;5039386;28;20698;-37
2024/01/31 08:03:17;;;;;;;13.68;8.88;;;7.90;99.90;;;7.30;100.00;98881.44;5035121;28;20033;-37
2024/01/31 08:05:42;;;;;;;12.57;8.15;;;7.90;99.90;;;7.26;100.00;98867.44;5039047;28;20028;-37
2024/01/31 08:08:08;;;;;;;14.80;8.40;;;7.90;99.90;;;7.24;100.00;98865.72;5034899;28;20028;-37
2024/01/31 08:10:34;;;;;;;11.70;7.72;;;7.90;99.90;;;7.20;100.00;98870.09;5041106;28;20482;-37
2024/01/31 08:12:59;;;;;;;12.82;8.38;;;7.80;99.90;;;7.24;100.00;98876.22;5035059;28;20060;-37
2024/01/31 08:15:25;;;;;;;17.25;8.40;;;7.80;99.90;;;7.25;100.00;98868.34;5035177;28;20037;-37
2024/01/31 08:17:51;;;;;;;13.77;8.23;;;7.80;99.90;;;7.29;100.00;98874.47;5034587;28;20032;-37
2024/01/31 08:20:17;;;;;;;12.07;8.00;;;7.80;99.90;;;7.30;100.00;98872.69;5036627;28;20524;-35
2024/01/31 08:22:42;;;;;;;13.35;7.68;;;7.90;99.90;;;7.31;100.00;98871.84;5034185;28;20529;-36
2024/01/31 08:25:09;;;;;;;15.00;8.52;;;7.90;99.90;;;7.26;100.00;98869.22;5034441;28;20028;-36
2024/01/31 08:27:34;;;;;;;14.75;9.05;;;7.90;99.90;;;7.25;100.00;98873.59;5038619;28;20029;-36
2024/01/31 08:30:00;;;;;;;14.10;9.45;;;7.80;99.90;;;7.18;100.00;98866.59;5035693;28;20288;-36
2024/01/31 08:32:26;;;;;;;13.90;8.95;;;7.90;99.90;;;7.24;100.00;98865.72;5036938;28;20045;-36
2024/01/31 08:34:51;;;;;;;17.25;9.55;;;7.80;99.90;;;7.25;100.00;98867.47;5038425;28;20043;-36
2024/01/31 08:37:18;;;;;;;14.55;8.55;;;7.80;99.90;;;7.18;100.00;98858.72;5038520;28;20045;-36
2024/01/31 08:39:43;;;;;;;15.52;9.43;;;7.80;99.90;;;7.24;100.00;98871.81;5033487;28;20037;-36
2024/01/31 08:42:09;;;;;;;12.90;8.98;;;7.90;99.90;;;7.32;100.00;98874.47;5035490;28;20111;-36
2024/01/31 08:44:35;;;;;;;12.85;8.18;;;7.90;99.90;;;7.32;100.00;98857.81;5038171;28;20044;-36
2024/01/31 08:47:01;;;;;;;14.13;7.82;;;8.00;99.90;;;7.47;100.00;98877.97;5034942;28;20503;-35
2024/01/31 08:49:26;;;;;;;12.43;8.15;;;8.00;99.90;;;7.54;100.00;98884.97;5022116;28;20477;-36
2024/01/31 08:51:55;;;;;;;11.95;7.57;;;8.10;99.90;;;7.68;100.00;98883.19;5036691;28;20029;-36
2024/01/31 08:54:21;;;;;;;10.90;7.65;;;8.20;99.90;;;7.73;100.00;98886.66;5037460;28;20025;-36
2024/01/31 08:56:47;;;;;;;13.63;7.93;;;8.30;99.90;;;7.85;100.00;98877.88;5034704;28;20056;-36
2024/01/31 08:59:12;;;;;;;12.45;9.07;;;8.30;99.90;;;7.79;100.00;98873.53;5039210;28;20533;-36
2024/01/31 09:01:46;;;;;;;14.35;9.15;;;8.40;99.90;;;7.88;100.00;98869.13;5037095;28;20445;-36
2024/01/31 09:04:14;;;;;;;16.20;9.35;;;8.40;99.90;;;7.95;100.00;98866.47;5032197;28;20043;-35
2024/01/31 09:06:43;;;;;;;16.77;9.82;;;8.50;99.90;;;8.04;100.00;98862.97;5035744;28;20108;-36
2024/01/31 09:09:09;;;;;;;16.85;11.18;;;8.60;99.90;;;7.99;100.00;98848.97;5038188;28;20432;-36
2024/01/31 09:11:35;;;;;;;16.98;11.00;;;8.60;99.90;;;8.11;100.00;98867.31;5038539;28;20497;-36
2024/01/31 09:14:01;;;;;;;13.95;9.88;;;8.70;99.90;;;8.16;100.00;98865.50;5038419;28;20075;-36
2024/01/31 09:16:27;;;;;;;16.05;10.75;;;8.70;99.90;;;8.24;100.00;98860.25;5037410;28;20036;-36
2024/01/31 09:18:52;;;;;;;16.70;11.07;;;8.70;99.90;;;8.20;100.00;98847.97;5035531;28;20045;-38
2024/01/31 09:21:26;;;;;;;20.02;12.57;;;8.80;99.90;;;8.19;100.00;98847.13;5037238;28;20044;-37
2024/01/31 09:23:52;;;;;;;22.38;12.13;;;8.80;99.90;;;8.25;100.00;98856.72;5035527;28;20052;-37
2024/01/31 09:26:17;;;;;;;16.77;11.77;;;8.80;99.90;;;8.28;100.00;98869.00;5036447;28;20492;-37
2024/01/31 09:28:43;;;;;;;18.27;10.82;;;8.80;99.90;;;8.31;100.00;98864.59;5034205;28;20512;-37
2024/01/31 09:31:09;;;;;;;16.85;10.80;;;8.90;99.90;;;8.36;100.00;98867.19;5037951;28;20119;-37
2024/01/31 09:33:34;;;;;;;18.65;11.25;;;8.90;99.90;;;8.25;100.00;98838.31;5038333;28;20382;-36
2024/01/31 09:36:00;;;;;;;18.83;10.40;;;8.90;99.90;;;8.49;100.00;98868.94;5036825;28;20021;-37
2024/01/31 09:38:26;;;;;;;19.98;11.30;;;9.00;99.90;;;8.50;100.00;98859.28;5036864;28;20128;-37
2024/01/31 09:40:52;;;;;;;19.30;10.88;;;9.00;99.90;;;8.53;100.00;98868.03;5033890;28;20028;-37
2024/01/31 09:43:20;;;;;;;20.60;12.20;;;9.10;99.90;;;8.56;100.00;98864.50;5034690;28;20033;-36
2024/01/31 09:45:49;;;;;;;17.50;10.60;;;9.10;99.90;;;8.62;100.00;98866.25;5034941;28;21651;-36
2024/01/31 09:48:18;;;;;;;16.50;10.23;;;9.10;99.90;;;8.66;100.00;98866.19;5035202;28;20060;-36
2024/01/31 09:50:43;;;;;;;14.35;10.10;;;9.20;99.90;;;8.71;100.00;98863.56;5016988;28;20029;-36
2024/01/31 09:53:11;;;;;;;16.95;10.38;;;9.20;99.90;;;8.75;100.00;98874.03;5033602;28;20039;-36
2024/01/31 09:55:37;;;;;;;18.83;11.30;;;9.30;99.90;;;8.82;100.00;98879.28;5037224;28;20029;-36
2024/01/31 09:58:03;;;;;;;19.00;11.05;;;9.30;99.90;;;8.78;100.00;98876.66;5033422;28;20063;-36
2024/01/31 10:00:30;;;;;;;18.98;10.88;;;9.30;99.90;;;8.77;100.00;98868.75;5035546;28;20477;-36
2024/01/31 10:02:55;;;;;;;16.90;10.70;;;9.30;99.90;;;8.78;100.00;98866.13;5032528;28;20045;-36
2024/01/31 10:05:21;;;;;;;17.35;11.52;;;9.30;99.90;;;8.88;100.00;98858.16;5035574;28;20036;-36
2024/01/31 10:07:47;;;;;;;16.75;11.07;;;9.40;99.90;;;8.93;100.00;98856.38;5035599;28;20400;-36
2024/01/31 10:10:12;;;;;;;18.98;11.48;;;9.50;99.90;;;8.98;100.00;98865.97;5035022;28;20032;-36
2024/01/31 10:12:38;;;;;;;17.08;11.50;;;9.50;99.90;;;8.91;100.00;98847.63;5035780;28;20515;-36
2024/01/31 10:15:09;;;;;;;17.10;10.52;;;9.60;99.90;;;9.02;100.00;98852.81;5033860;28;20048;-36
2024/01/31 10:17:35;;;;;;;18.70;12.00;;;9.60;99.90;;;9.11;100.00;98848.34;5036192;28;20071;-37